TimeCDT,TemperatureF,Dew PointF,Humidity,Sea Level PressureIn,VisibilityMPH,Wind Direction,Wind SpeedMPH,Gust SpeedMPH,PrecipitationIn,Events,Conditions,WindDirDegrees,DateUTC
12:15 AM,21.2,12.2,68,30.17,10.0,NW,9.2,-,N/A,,Partly Cloudy,320,2013-03-17 05:15:00
12:35 AM,21.2,12.2,68,30.17,10.0,NW,9.2,-,N/A,,Partly Cloudy,320,2013-03-17 05:35:00
12:55 AM,21.2,12.2,68,30.17,10.0,NW,6.9,-,N/A,,Partly Cloudy,320,2013-03-17 05:55:00
1:15 AM,19.4,10.4,68,30.17,10.0,NNW,9.2,-,N/A,,Scattered Clouds,330,2013-03-17 06:15:00
1:35 AM,19.4,10.4,68,30.17,10.0,NNW,9.2,-,N/A,,Scattered Clouds,330,2013-03-17 06:35:00
1:55 AM,19.4,10.4,68,30.17,10.0,NNW,6.9,-,N/A,,Partly Cloudy,330,2013-03-17 06:55:00
2:15 AM,19.4,10.4,68,30.18,10.0,North,9.2,-,N/A,,Partly Cloudy,360,2013-03-17 07:15:00
2:35 AM,17.6,10.4,73,30.18,10.0,North,9.2,-,N/A,,Clear,360,2013-03-17 07:35:00
2:55 AM,17.6,8.6,68,30.18,10.0,North,9.2,-,N/A,,Clear,360,2013-03-17 07:55:00
3:15 AM,17.6,8.6,68,30.18,10.0,North,8.1,-,N/A,,Clear,350,2013-03-17 08:15:00
3:35 AM,17.6,8.6,68,30.17,10.0,North,8.1,-,N/A,,Clear,360,2013-03-17 08:35:00
3:55 AM,17.6,8.6,68,30.16,10.0,North,10.4,-,N/A,,Clear,360,2013-03-17 08:55:00
4:15 AM,15.8,8.6,73,30.16,10.0,North,6.9,-,N/A,,Clear,10,2013-03-17 09:15:00
4:35 AM,15.8,8.6,73,30.15,10.0,NNE,6.9,-,N/A,,Clear,20,2013-03-17 09:35:00
4:55 AM,15.8,6.8,68,30.15,10.0,NNE,9.2,-,N/A,,Clear,20,2013-03-17 09:55:00
5:15 AM,15.8,6.8,68,30.14,10.0,NNE,8.1,-,N/A,,Clear,20,2013-03-17 10:15:00
5:35 AM,15.8,6.8,68,30.15,10.0,NNE,6.9,-,N/A,,Clear,30,2013-03-17 10:35:00
5:55 AM,15.8,6.8,68,30.15,-9999.0,NE,5.8,-,N/A,,Clear,50,2013-03-17 10:55:00
6:15 AM,15.8,6.8,68,30.15,10.0,NE,4.6,-,N/A,,Clear,50,2013-03-17 11:15:00
6:35 AM,14.0,6.8,73,30.16,10.0,Variable,4.6,-,N/A,,Clear,0,2013-03-17 11:35:00
6:55 AM,14.0,6.8,73,30.16,10.0,ENE,5.8,-,N/A,,Clear,60,2013-03-17 11:55:00
7:15 AM,14.0,6.8,73,30.17,10.0,East,4.6,-,N/A,,Clear,80,2013-03-17 12:15:00
7:35 AM,14.0,6.8,73,30.18,10.0,ENE,6.9,-,N/A,,Clear,70,2013-03-17 12:35:00
7:55 AM,14.0,6.8,73,30.18,10.0,East,8.1,-,N/A,,Clear,80,2013-03-17 12:55:00
8:15 AM,15.8,6.8,68,30.19,10.0,East,11.5,-,N/A,,Clear,90,2013-03-17 13:15:00
8:35 AM,15.8,6.8,68,30.19,10.0,East,6.9,13.8,N/A,,Clear,90,2013-03-17 13:35:00
8:55 AM,15.8,6.8,68,30.19,10.0,East,11.5,-,N/A,,Clear,90,2013-03-17 13:55:00
9:15 AM,17.6,6.8,63,30.19,10.0,East,12.7,20.7,N/A,,Clear,90,2013-03-17 14:15:00
9:35 AM,17.6,6.8,63,30.19,10.0,East,12.7,-,N/A,,Clear,100,2013-03-17 14:35:00
9:55 AM,19.4,8.6,63,30.18,10.0,East,12.7,-,N/A,,Clear,100,2013-03-17 14:55:00
10:15 AM,19.4,8.6,63,30.18,10.0,ESE,13.8,-,N/A,,Clear,110,2013-03-17 15:15:00
10:35 AM,21.2,8.6,58,30.18,10.0,ESE,15.0,-,N/A,,Clear,110,2013-03-17 15:35:00
10:55 AM,21.2,8.6,58,30.17,10.0,ESE,15.0,-,N/A,,Clear,110,2013-03-17 15:55:00
11:15 AM,21.2,8.6,58,30.17,10.0,ESE,12.7,-,N/A,,Clear,120,2013-03-17 16:15:00
11:35 AM,23.0,10.4,59,30.16,10.0,ESE,10.4,-,N/A,,Clear,110,2013-03-17 16:35:00
11:55 AM,24.8,10.4,54,30.15,10.0,SE,10.4,16.1,N/A,,Clear,140,2013-03-17 16:55:00
12:15 PM,24.8,10.4,54,30.14,10.0,ESE,11.5,-,N/A,,Clear,110,2013-03-17 17:15:00
12:35 PM,24.8,10.4,54,30.13,10.0,SE,10.4,17.3,N/A,,Clear,130,2013-03-17 17:35:00
12:55 PM,26.6,12.2,55,30.12,10.0,SE,8.1,15.0,N/A,,Clear,130,2013-03-17 17:55:00
1:15 PM,26.6,12.2,55,30.11,-9999.0,SE,12.7,-,N/A,,Clear,130,2013-03-17 18:15:00
1:35 PM,26.6,14.0,59,30.10,10.0,SSE,10.4,16.1,N/A,,Clear,150,2013-03-17 18:35:00
1:55 PM,26.6,14.0,59,30.08,10.0,SSE,11.5,-,N/A,,Clear,160,2013-03-17 18:55:00
2:15 PM,28.4,14.0,55,30.07,10.0,ESE,13.8,-,N/A,,Clear,110,2013-03-17 19:15:00
2:35 PM,28.4,12.2,51,30.06,10.0,SE,13.8,-,N/A,,Clear,130,2013-03-17 19:35:00
2:55 PM,28.4,14.0,55,30.05,10.0,ESE,12.7,-,N/A,,Clear,120,2013-03-17 19:55:00
3:15 PM,30.2,14.0,51,30.04,10.0,ESE,13.8,19.6,N/A,,Clear,120,2013-03-17 20:15:00
3:35 PM,30.2,14.0,51,30.03,10.0,SE,13.8,19.6,N/A,,Clear,130,2013-03-17 20:35:00
3:55 PM,30.2,15.8,55,30.02,10.0,SE,11.5,18.4,N/A,,Clear,130,2013-03-17 20:55:00
4:15 PM,30.2,17.6,60,30.01,10.0,ESE,15.0,20.7,N/A,,Clear,120,2013-03-17 21:15:00
4:35 PM,30.2,17.6,60,30.00,10.0,SE,12.7,23.0,N/A,,Clear,130,2013-03-17 21:35:00
4:55 PM,30.2,17.6,60,29.99,10.0,SE,16.1,23.0,N/A,,Clear,130,2013-03-17 21:55:00
5:15 PM,30.2,19.4,64,29.99,10.0,SE,16.1,23.0,N/A,,Clear,130,2013-03-17 22:15:00
5:35 PM,30.2,19.4,64,29.98,10.0,SE,15.0,21.9,N/A,,Clear,130,2013-03-17 22:35:00
5:55 PM,28.4,19.4,69,29.98,10.0,SE,13.8,-,N/A,,Clear,130,2013-03-17 22:55:00
6:15 PM,28.4,19.4,69,29.98,10.0,SE,11.5,21.9,N/A,,Clear,140,2013-03-17 23:15:00
6:35 PM,28.4,19.4,69,29.98,10.0,SE,13.8,23.0,N/A,,Scattered Clouds,130,2013-03-17 23:35:00
6:55 PM,28.4,19.4,69,29.98,10.0,SE,11.5,18.4,N/A,,Overcast,140,2013-03-17 23:55:00
7:15 PM,28.4,19.4,69,29.97,10.0,SE,11.5,23.0,N/A,,Overcast,130,2013-03-18 00:15:00
7:35 PM,28.4,19.4,69,29.97,10.0,SE,11.5,23.0,N/A,,Overcast,130,2013-03-18 00:35:00
7:55 PM,28.4,21.2,74,29.96,10.0,ESE,10.4,21.9,N/A,,Overcast,120,2013-03-18 00:55:00
8:15 PM,28.4,21.2,74,29.95,10.0,SE,9.2,17.3,N/A,,Overcast,130,2013-03-18 01:15:00
8:35 PM,28.4,21.2,74,29.94,10.0,SE,15.0,21.9,N/A,,Overcast,130,2013-03-18 01:35:00
8:55 PM,28.4,21.2,74,29.94,10.0,SE,13.8,27.6,N/A,,Overcast,130,2013-03-18 01:55:00
9:15 PM,28.4,21.2,74,29.93,10.0,SE,15.0,24.2,N/A,,Overcast,130,2013-03-18 02:15:00
9:35 PM,28.4,21.2,74,29.93,10.0,SE,11.5,19.6,N/A,,Overcast,130,2013-03-18 02:35:00
9:55 PM,28.4,21.2,74,29.94,10.0,SE,10.4,-,N/A,,Overcast,130,2013-03-18 02:55:00
10:15 PM,28.4,21.2,74,29.94,10.0,SE,9.2,-,N/A,,Overcast,130,2013-03-18 03:15:00
10:35 PM,28.4,21.2,74,29.94,10.0,SE,15.0,20.7,N/A,,Overcast,130,2013-03-18 03:35:00
10:55 PM,28.4,21.2,74,29.93,10.0,SE,10.4,20.7,N/A,,Overcast,130,2013-03-18 03:55:00
11:15 PM,28.4,21.2,74,29.93,10.0,ESE,11.5,-,N/A,,Overcast,120,2013-03-18 04:15:00
11:35 PM,26.6,21.2,80,29.92,10.0,ESE,9.2,17.3,N/A,,Overcast,120,2013-03-18 04:35:00
11:55 PM,26.6,21.2,80,29.91,10.0,SE,9.2,17.3,N/A,,Overcast,130,2013-03-18 04:55:00